sensor_id;sensor_type;location;lat;lon;timestamp;pressure;altitude;pressure_sealevel;temperature;humidity
43878;BME280;29815;48.184;11.268;2022-09-03T00:02:20;95327.41;;;12.78;100.00
43878;BME280;29815;48.184;11.268;2022-09-03T00:04:57;95330.34;;;12.82;100.00
43878;BME280;29815;48.184;11.268;2022-09-03T00:07:35;95326.84;;;12.81;100.00
43878;BME280;29815;48.184;11.268;2022-09-03T00:10:11;95328.44;;;12.82;100.00
43878;BME280;29815;48.184;11.268;2022-09-03T00:12:45;95336.25;;;12.84;100.00
43878;BME280;29815;48.184;11.268;2022-09-03T00:15:17;95332.75;;;12.83;100.00
43878;BME280;29815;48.184;11.268;2022-09-03T00:17:50;95327.34;;;12.83;100.00
43878;BME280;29815;48.184;11.268;2022-09-03T00:20:26;95317.56;;;12.87;100.00
43878;BME280;29815;48.184;11.268;2022-09-03T00:23:00;95314.28;;;12.91;100.00
43878;BME280;29815;48.184;11.268;2022-09-03T00:25:35;95318.31;;;12.93;100.00
43878;BME280;29815;48.184;11.268;2022-09-03T00:28:11;95319.09;;;12.94;100.00
43878;BME280;29815;48.184;11.268;2022-09-03T00:30:46;95311.00;;;12.94;100.00
43878;BME280;29815;48.184;11.268;2022-09-03T00:33:25;95310.72;;;12.95;100.00
43878;BME280;29815;48.184;11.268;2022-09-03T00:36:04;95315.03;;;12.96;100.00
43878;BME280;29815;48.184;11.268;2022-09-03T00:38:39;95305.59;;;12.94;100.00
43878;BME280;29815;48.184;11.268;2022-09-03T00:41:13;95306.69;;;12.93;100.00
43878;BME280;29815;48.184;11.268;2022-09-03T00:43:59;95307.25;;;12.89;100.00
43878;BME280;29815;48.184;11.268;2022-09-03T00:46:52;95311.94;;;12.84;100.00
43878;BME280;29815;48.184;11.268;2022-09-03T00:49:28;95314.72;;;12.79;100.00
43878;BME280;29815;48.184;11.268;2022-09-03T00:52:08;95315.81;;;12.78;100.00
43878;BME280;29815;48.184;11.268;2022-09-03T00:54:48;95316.91;;;12.77;100.00
43878;BME280;29815;48.184;11.268;2022-09-03T00:57:31;95321.25;;;12.73;100.00
43878;BME280;29815;48.184;11.268;2022-09-03T01:00:11;95323.72;;;12.69;100.00
43878;BME280;29815;48.184;11.268;2022-09-03T01:02:52;95327.56;;;12.63;100.00
43878;BME280;29815;48.184;11.268;2022-09-03T01:05:42;95326.09;;;12.52;100.00
43878;BME280;29815;48.184;11.268;2022-09-03T01:08:34;95329.13;;;12.45;100.00
43878;BME280;29815;48.184;11.268;2022-09-03T01:11:21;95318.09;;;12.42;100.00
43878;BME280;29815;48.184;11.268;2022-09-03T01:13:58;95319.47;;;12.39;100.00
43878;BME280;29815;48.184;11.268;2022-09-03T01:16:37;95325.97;;;12.38;100.00
43878;BME280;29815;48.184;11.268;2022-09-03T01:19:25;95317.06;;;12.38;100.00
43878;BME280;29815;48.184;11.268;2022-09-03T01:22:18;95317.34;;;12.36;100.00
43878;BME280;29815;48.184;11.268;2022-09-03T01:25:15;95310.34;;;12.35;100.00
43878;BME280;29815;48.184;11.268;2022-09-03T01:28:06;95307.94;;;12.34;100.00
43878;BME280;29815;48.184;11.268;2022-09-03T01:30:51;95307.50;;;12.27;100.00
43878;BME280;29815;48.184;11.268;2022-09-03T01:33:26;95312.41;;;12.19;100.00
43878;BME280;29815;48.184;11.268;2022-09-03T01:36:02;95309.47;;;12.16;100.00
43878;BME280;29815;48.184;11.268;2022-09-03T01:38:39;95313.31;;;12.10;100.00
43878;BME280;29815;48.184;11.268;2022-09-03T01:41:16;95312.63;;;11.99;100.00
43878;BME280;29815;48.184;11.268;2022-09-03T01:44:11;95308.13;;;11.90;100.00
43878;BME280;29815;48.184;11.268;2022-09-03T01:46:44;95316.81;;;11.81;100.00
43878;BME280;29815;48.184;11.268;2022-09-03T01:49:21;95324.41;;;11.74;100.00
43878;BME280;29815;48.184;11.268;2022-09-03T01:52:01;95340.38;;;11.66;100.00
43878;BME280;29815;48.184;11.268;2022-09-03T01:54:56;95321.59;;;11.50;100.00
43878;BME280;29815;48.184;11.268;2022-09-03T01:57:38;95326.81;;;11.42;100.00
43878;BME280;29815;48.184;11.268;2022-09-03T02:00:17;95325.50;;;11.34;100.00
43878;BME280;29815;48.184;11.268;2022-09-03T02:02:49;95323.94;;;11.23;100.00
43878;BME280;29815;48.184;11.268;2022-09-03T02:05:21;95306.78;;;11.14;100.00
43878;BME280;29815;48.184;11.268;2022-09-03T02:07:56;95313.00;;;11.09;100.00
43878;BME280;29815;48.184;11.268;2022-09-03T02:10:30;95313.84;;;11.00;100.00
43878;BME280;29815;48.184;11.268;2022-09-03T02:13:05;95313.38;;;10.93;100.00
43878;BME280;29815;48.184;11.268;2022-09-03T02:15:42;95324.19;;;10.88;100.00
43878;BME280;29815;48.184;11.268;2022-09-03T02:18:18;95319.91;;;10.76;100.00
43878;BME280;29815;48.184;11.268;2022-09-03T02:20:50;95316.16;;;10.67;100.00
43878;BME280;29815;48.184;11.268;2022-09-03T02:23:21;95321.31;;;10.64;100.00
43878;BME280;29815;48.184;11.268;2022-09-03T02:25:56;95314.09;;;10.54;100.00
43878;BME280;29815;48.184;11.268;2022-09-03T02:28:27;95323.25;;;10.48;100.00
43878;BME280;29815;48.184;11.268;2022-09-03T02:30:59;95314.91;;;10.44;100.00
43878;BME280;29815;48.184;11.268;2022-09-03T02:33:30;95321.91;;;10.40;100.00
43878;BME280;29815;48.184;11.268;2022-09-03T02:36:01;95317.94;;;10.33;100.00
43878;BME280;29815;48.184;11.268;2022-09-03T02:38:32;95316.59;;;10.30;100.00
43878;BME280;29815;48.184;11.268;2022-09-03T02:41:05;95301.00;;;10.27;100.00
43878;BME280;29815;48.184;11.268;2022-09-03T02:43:38;95310.41;;;10.25;100.00
43878;BME280;29815;48.184;11.268;2022-09-03T02:46:14;95310.97;;;10.22;100.00
43878;BME280;29815;48.184;11.268;2022-09-03T02:48:50;95312.53;;;10.17;100.00
43878;BME280;29815;48.184;11.268;2022-09-03T02:51:20;95306.09;;;10.13;100.00
43878;BME280;29815;48.184;11.268;2022-09-03T02:53:50;95310.66;;;10.13;100.00
43878;BME280;29815;48.184;11.268;2022-09-03T02:56:19;95302.59;;;10.13;100.00
43878;BME280;29815;48.184;11.268;2022-09-03T02:58:53;95303.41;;;10.13;100.00
43878;BME280;29815;48.184;11.268;2022-09-03T03:01:25;95303.13;;;10.15;100.00
43878;BME280;29815;48.184;11.268;2022-09-03T03:03:55;95309.63;;;10.19;100.00
43878;BME280;29815;48.184;11.268;2022-09-03T03:06:25;95307.47;;;10.21;100.00
43878;BME280;29815;48.184;11.268;2022-09-03T03:08:55;95305.56;;;10.27;100.00
43878;BME280;29815;48.184;11.268;2022-09-03T03:11:24;95319.81;;;10.27;100.00
43878;BME280;29815;48.184;11.268;2022-09-03T03:14:09;95315.25;;;10.28;100.00
43878;BME280;29815;48.184;11.268;2022-09-03T03:16:39;95316.88;;;10.29;100.00
43878;BME280;29815;48.184;11.268;2022-09-03T03:19:09;95323.59;;;10.31;100.00
43878;BME280;29815;48.184;11.268;2022-09-03T03:21:38;95312.81;;;10.36;100.00
43878;BME280;29815;48.184;11.268;2022-09-03T03:24:08;95310.88;;;10.42;100.00
43878;BME280;29815;48.184;11.268;2022-09-03T03:26:37;95312.75;;;10.46;100.00
43878;BME280;29815;48.184;11.268;2022-09-03T03:29:07;95306.84;;;10.49;100.00
43878;BME280;29815;48.184;11.268;2022-09-03T03:31:44;95313.84;;;10.45;100.00
43878;BME280;29815;48.184;11.268;2022-09-03T03:34:13;95314.38;;;10.42;100.00
43878;BME280;29815;48.184;11.268;2022-09-03T03:36:42;95316.53;;;10.40;100.00
43878;BME280;29815;48.184;11.268;2022-09-03T03:39:12;95316.84;;;10.34;100.00
43878;BME280;29815;48.184;11.268;2022-09-03T03:41:41;95317.94;;;10.28;100.00
43878;BME280;29815;48.184;11.268;2022-09-03T03:44:11;95313.38;;;10.23;100.00
43878;BME280;29815;48.184;11.268;2022-09-03T03:46:40;95318.72;;;10.18;100.00
43878;BME280;29815;48.184;11.268;2022-09-03T03:49:11;95324.91;;;10.13;100.00
43878;BME280;29815;48.184;11.268;2022-09-03T03:51:40;95324.69;;;10.10;100.00
43878;BME280;29815;48.184;11.268;2022-09-03T03:54:10;95322.53;;;10.07;100.00
43878;BME280;29815;48.184;11.268;2022-09-03T03:56:44;95321.47;;;10.08;100.00
43878;BME280;29815;48.184;11.268;2022-09-03T03:59:22;95327.66;;;10.08;100.00
43878;BME280;29815;48.184;11.268;2022-09-03T04:01:53;95325.50;;;10.10;100.00
43878;BME280;29815;48.184;11.268;2022-09-03T04:04:24;95323.03;;;10.14;100.00
43878;BME280;29815;48.184;11.268;2022-09-03T04:06:53;95311.75;;;10.17;100.00
43878;BME280;29815;48.184;11.268;2022-09-03T04:09:23;95317.16;;;10.22;100.00
43878;BME280;29815;48.184;11.268;2022-09-03T04:11:52;95330.84;;;10.31;100.00
43878;BME280;29815;48.184;11.268;2022-09-03T04:14:24;95331.91;;;10.35;100.00
43878;BME280;29815;48.184;11.268;2022-09-03T04:16:54;95335.69;;;10.34;100.00
43878;BME280;29815;48.184;11.268;2022-09-03T04:19:25;95340.00;;;10.35;100.00
43878;BME280;29815;48.184;11.268;2022-09-03T04:21:56;95337.25;;;10.40;100.00
43878;BME280;29815;48.184;11.268;2022-09-03T04:24:25;95342.09;;;10.43;100.00
43878;BME280;29815;48.184;11.268;2022-09-03T04:26:55;95347.75;;;10.46;100.00
43878;BME280;29815;48.184;11.268;2022-09-03T04:29:24;95352.56;;;10.49;100.00
43878;BME280;29815;48.184;11.268;2022-09-03T04:31:57;95352.03;;;10.52;100.00
43878;BME280;29815;48.184;11.268;2022-09-03T04:34:46;95353.91;;;10.57;100.00
43878;BME280;29815;48.184;11.268;2022-09-03T04:37:15;95352.28;;;10.61;100.00
43878;BME280;29815;48.184;11.268;2022-09-03T04:39:46;95360.84;;;10.68;100.00
43878;BME280;29815;48.184;11.268;2022-09-03T04:42:16;95367.56;;;10.71;100.00
43878;BME280;29815;48.184;11.268;2022-09-03T04:44:45;95368.09;;;10.73;100.00
43878;BME280;29815;48.184;11.268;2022-09-03T04:47:14;95381.00;;;10.76;100.00
43878;BME280;29815;48.184;11.268;2022-09-03T04:49:45;95377.78;;;10.79;100.00
43878;BME280;29815;48.184;11.268;2022-09-03T04:52:14;95381.00;;;10.81;100.00
43878;BME280;29815;48.184;11.268;2022-09-03T04:54:44;95383.69;;;10.86;100.00
43878;BME280;29815;48.184;11.268;2022-09-03T04:57:13;95396.59;;;10.89;100.00
43878;BME280;29815;48.184;11.268;2022-09-03T04:59:42;95395.25;;;10.92;100.00
43878;BME280;29815;48.184;11.268;2022-09-03T05:02:12;95402.47;;;10.96;100.00
43878;BME280;29815;48.184;11.268;2022-09-03T05:04:42;95407.84;;;11.01;100.00
43878;BME280;29815;48.184;11.268;2022-09-03T05:07:13;95402.97;;;11.08;100.00
43878;BME280;29815;48.184;11.268;2022-09-03T05:09:47;95397.03;;;11.11;100.00
43878;BME280;29815;48.184;11.268;2022-09-03T05:12:16;95384.34;;;11.17;100.00
43878;BME280;29815;48.184;11.268;2022-09-03T05:14:45;95384.81;;;11.24;100.00
43878;BME280;29815;48.184;11.268;2022-09-03T05:17:15;95386.16;;;11.27;100.00
43878;BME280;29815;48.184;11.268;2022-09-03T05:19:44;95379.13;;;11.31;100.00
43878;BME280;29815;48.184;11.268;2022-09-03T05:22:15;95375.34;;;11.37;100.00
43878;BME280;29815;48.184;11.268;2022-09-03T05:24:48;95383.41;;;11.42;100.00
43878;BME280;29815;48.184;11.268;2022-09-03T05:27:17;95373.69;;;11.46;100.00
43878;BME280;29815;48.184;11.268;2022-09-03T05:29:47;95390.31;;;11.53;100.00
43878;BME280;29815;48.184;11.268;2022-09-03T05:32:16;95398.13;;;11.54;100.00
43878;BME280;29815;48.184;11.268;2022-09-03T05:34:46;95397.84;;;11.56;100.00
43878;BME280;29815;48.184;11.268;2022-09-03T05:37:17;95406.47;;;11.58;100.00
43878;BME280;29815;48.184;11.268;2022-09-03T05:39:46;95395.41;;;11.60;100.00
43878;BME280;29815;48.184;11.268;2022-09-03T05:42:15;95402.13;;;11.62;100.00
43878;BME280;29815;48.184;11.268;2022-09-03T05:44:45;95395.38;;;11.65;100.00
43878;BME280;29815;48.184;11.268;2022-09-03T05:47:16;95401.53;;;11.70;100.00
43878;BME280;29815;48.184;11.268;2022-09-03T05:49:46;95397.75;;;11.71;100.00
43878;BME280;29815;48.184;11.268;2022-09-03T05:52:17;95390.72;;;11.75;100.00
43878;BME280;29815;48.184;11.268;2022-09-03T05:54:48;95389.63;;;11.81;100.00
43878;BME280;29815;48.184;11.268;2022-09-03T05:57:18;95395.25;;;11.85;100.00
43878;BME280;29815;48.184;11.268;2022-09-03T05:59:48;95394.69;;;11.88;100.00
43878;BME280;29815;48.184;11.268;2022-09-03T06:02:18;95392.53;;;11.90;100.00
43878;BME280;29815;48.184;11.268;2022-09-03T06:04:47;95393.56;;;11.94;100.00
43878;BME280;29815;48.184;11.268;2022-09-03T06:07:22;95390.59;;;11.96;100.00
43878;BME280;29815;48.184;11.268;2022-09-03T06:09:53;95390.84;;;11.99;100.00
43878;BME280;29815;48.184;11.268;2022-09-03T06:12:23;95400.25;;;12.02;100.00
43878;BME280;29815;48.184;11.268;2022-09-03T06:14:52;95411.50;;;12.09;100.00
43878;BME280;29815;48.184;11.268;2022-09-03T06:17:23;95404.47;;;12.13;100.00
43878;BME280;29815;48.184;11.268;2022-09-03T06:19:53;95409.31;;;12.16;100.00
43878;BME280;29815;48.184;11.268;2022-09-03T06:22:23;95404.16;;;12.19;100.00
43878;BME280;29815;48.184;11.268;2022-09-03T06:24:55;95412.47;;;12.23;100.00
43878;BME280;29815;48.184;11.268;2022-09-03T06:27:25;95419.72;;;12.28;100.00
43878;BME280;29815;48.184;11.268;2022-09-03T06:29:54;95425.41;;;12.26;100.00
43878;BME280;29815;48.184;11.268;2022-09-03T06:32:26;95418.41;;;12.25;100.00
43878;BME280;29815;48.184;11.268;2022-09-03T06:34:56;95426.75;;;12.29;100.00
43878;BME280;29815;48.184;11.268;2022-09-03T06:37:27;95421.06;;;12.30;100.00
43878;BME280;29815;48.184;11.268;2022-09-03T06:39:57;95425.06;;;12.33;100.00
43878;BME280;29815;48.184;11.268;2022-09-03T06:42:26;95419.63;;;12.38;100.00
43878;BME280;29815;48.184;11.268;2022-09-03T06:44:56;95422.84;;;12.40;100.00
43878;BME280;29815;48.184;11.268;2022-09-03T06:47:27;95427.91;;;12.46;100.00
43878;BME280;29815;48.184;11.268;2022-09-03T06:49:57;95425.25;;;12.41;100.00
43878;BME280;29815;48.184;11.268;2022-09-03T06:52:28;95424.97;;;12.43;100.00
43878;BME280;29815;48.184;11.268;2022-09-03T06:54:58;95435.44;;;12.49;100.00
43878;BME280;29815;48.184;11.268;2022-09-03T06:57:28;95432.75;;;12.49;100.00
43878;BME280;29815;48.184;11.268;2022-09-03T06:59:57;95431.38;;;12.52;100.00
43878;BME280;29815;48.184;11.268;2022-09-03T07:02:27;95429.44;;;12.58;100.00
43878;BME280;29815;48.184;11.268;2022-09-03T07:04:57;95429.66;;;12.61;100.00
43878;BME280;29815;48.184;11.268;2022-09-03T07:07:28;95430.13;;;12.68;100.00
43878;BME280;29815;48.184;11.268;2022-09-03T07:09:58;95435.53;;;12.68;100.00
43878;BME280;29815;48.184;11.268;2022-09-03T07:12:31;95427.09;;;12.75;100.00
43878;BME280;29815;48.184;11.268;2022-09-03T07:15:02;95427.84;;;12.80;100.00
43878;BME280;29815;48.184;11.268;2022-09-03T07:17:32;95428.28;;;12.87;100.00
43878;BME280;29815;48.184;11.268;2022-09-03T07:20:03;95436.00;;;12.99;100.00
43878;BME280;29815;48.184;11.268;2022-09-03T07:22:34;95424.88;;;13.06;100.00
43878;BME280;29815;48.184;11.268;2022-09-03T07:25:05;95434.22;;;13.13;100.00
43878;BME280;29815;48.184;11.268;2022-09-03T07:27:35;95434.13;;;13.24;100.00
43878;BME280;29815;48.184;11.268;2022-09-03T07:30:06;95433.22;;;13.33;100.00
43878;BME280;29815;48.184;11.268;2022-09-03T07:32:37;95434.16;;;13.42;100.00
43878;BME280;29815;48.184;11.268;2022-09-03T07:35:08;95429.34;;;13.58;100.00
43878;BME280;29815;48.184;11.268;2022-09-03T07:45:34;95435.63;;;14.10;100.00
43878;BME280;29815;48.184;11.268;2022-09-03T07:48:04;95438.69;;;14.22;100.00
43878;BME280;29815;48.184;11.268;2022-09-03T07:50:34;95433.59;;;14.34;100.00
43878;BME280;29815;48.184;11.268;2022-09-03T07:53:06;95428.38;;;14.43;100.00
43878;BME280;29815;48.184;11.268;2022-09-03T07:55:36;95430.06;;;14.52;100.00
43878;BME280;29815;48.184;11.268;2022-09-03T07:58:35;95426.19;;;14.59;100.00
43878;BME280;29815;48.184;11.268;2022-09-03T08:01:36;95431.94;;;14.71;100.00
43878;BME280;29815;48.184;11.268;2022-09-03T08:04:09;95432.53;;;14.81;100.00
43878;BME280;29815;48.184;11.268;2022-09-03T08:06:39;95420.41;;;14.93;100.00
43878;BME280;29815;48.184;11.268;2022-09-03T08:09:11;95426.13;;;15.05;100.00
43878;BME280;29815;48.184;11.268;2022-09-03T08:11:43;95420.72;;;15.18;100.00
43878;BME280;29815;48.184;11.268;2022-09-03T08:14:13;95426.31;;;15.36;100.00
43878;BME280;29815;48.184;11.268;2022-09-03T08:16:46;95427.22;;;15.45;100.00
43878;BME280;29815;48.184;11.268;2022-09-03T08:19:16;95434.34;;;15.54;100.00
43878;BME280;29815;48.184;11.268;2022-09-03T08:21:47;95437.16;;;15.63;100.00
43878;BME280;29815;48.184;11.268;2022-09-03T08:24:17;95435.34;;;15.72;100.00
43878;BME280;29815;48.184;11.268;2022-09-03T08:26:48;95436.84;;;15.78;100.00
43878;BME280;29815;48.184;11.268;2022-09-03T08:29:20;95443.94;;;15.88;100.00
43878;BME280;29815;48.184;11.268;2022-09-03T08:31:52;95432.25;;;16.01;100.00
43878;BME280;29815;48.184;11.268;2022-09-03T08:34:22;95430.72;;;16.09;100.00
43878;BME280;29815;48.184;11.268;2022-09-03T08:36:52;95430.47;;;16.19;100.00
43878;BME280;29815;48.184;11.268;2022-09-03T08:39:21;95425.41;;;16.26;100.00
43878;BME280;29815;48.184;11.268;2022-09-03T08:42:28;95425.97;;;16.37;100.00
43878;BME280;29815;48.184;11.268;2022-09-03T08:45:05;95430.34;;;16.46;100.00
43878;BME280;29815;48.184;11.268;2022-09-03T08:47:43;95424.22;;;16.63;100.00
43878;BME280;29815;48.184;11.268;2022-09-03T08:50:22;95423.16;;;16.95;100.00
43878;BME280;29815;48.184;11.268;2022-09-03T08:52:56;95418.94;;;17.20;100.00
43878;BME280;29815;48.184;11.268;2022-09-03T08:55:34;95425.53;;;17.36;100.00
43878;BME280;29815;48.184;11.268;2022-09-03T08:58:12;95426.53;;;17.49;100.00
43878;BME280;29815;48.184;11.268;2022-09-03T09:00:50;95426.72;;;17.61;100.00
43878;BME280;29815;48.184;11.268;2022-09-03T09:03:42;95421.97;;;17.75;100.00
43878;BME280;29815;48.184;11.268;2022-09-03T09:06:27;95420.06;;;17.93;100.00
43878;BME280;29815;48.184;11.268;2022-09-03T09:09:11;95421.97;;;18.10;100.00
43878;BME280;29815;48.184;11.268;2022-09-03T09:11:57;95419.59;;;18.17;100.00
43878;BME280;29815;48.184;11.268;2022-09-03T09:14:44;95419.75;;;18.29;100.00
43878;BME280;29815;48.184;11.268;2022-09-03T09:17:36;95411.22;;;18.48;100.00
43878;BME280;29815;48.184;11.268;2022-09-03T09:20:35;95412.81;;;18.66;100.00
43878;BME280;29815;48.184;11.268;2022-09-03T09:23:13;95401.91;;;18.75;100.00
43878;BME280;29815;48.184;11.268;2022-09-03T09:25:47;95406.81;;;18.90;100.00
43878;BME280;29815;48.184;11.268;2022-09-03T09:28:20;95404.50;;;19.09;100.00
43878;BME280;29815;48.184;11.268;2022-09-03T09:30:53;95409.56;;;19.28;100.00
43878;BME280;29815;48.184;11.268;2022-09-03T09:33:24;95408.97;;;19.52;100.00
43878;BME280;29815;48.184;11.268;2022-09-03T09:35:58;95408.97;;;19.81;100.00
43878;BME280;29815;48.184;11.268;2022-09-03T09:38:33;95392.03;;;20.09;100.00
43878;BME280;29815;48.184;11.268;2022-09-03T09:41:09;95392.16;;;20.33;100.00
43878;BME280;29815;48.184;11.268;2022-09-03T09:43:40;95385.84;;;20.41;100.00
43878;BME280;29815;48.184;11.268;2022-09-03T09:46:14;95384.72;;;20.54;100.00
43878;BME280;29815;48.184;11.268;2022-09-03T09:48:49;95386.28;;;20.76;100.00
43878;BME280;29815;48.184;11.268;2022-09-03T09:51:24;95390.88;;;20.97;100.00
43878;BME280;29815;48.184;11.268;2022-09-03T09:54:07;95387.69;;;21.07;100.00
43878;BME280;29815;48.184;11.268;2022-09-03T09:56:42;95382.81;;;21.12;100.00
43878;BME280;29815;48.184;11.268;2022-09-03T09:59:13;95380.56;;;21.26;100.00
43878;BME280;29815;48.184;11.268;2022-09-03T10:01:44;95386.94;;;21.43;100.00
43878;BME280;29815;48.184;11.268;2022-09-03T10:04:23;95387.28;;;21.41;100.00
43878;BME280;29815;48.184;11.268;2022-09-03T10:07:06;95384.31;;;21.46;100.00
43878;BME280;29815;48.184;11.268;2022-09-03T10:10:03;95381.47;;;21.55;100.00
43878;BME280;29815;48.184;11.268;2022-09-03T10:12:38;95379.84;;;21.66;100.00
43878;BME280;29815;48.184;11.268;2022-09-03T10:15:20;95379.63;;;21.71;100.00
43878;BME280;29815;48.184;11.268;2022-09-03T10:17:59;95374.59;;;21.73;100.00
43878;BME280;29815;48.184;11.268;2022-09-03T10:20:38;95375.16;;;21.67;100.00
43878;BME280;29815;48.184;11.268;2022-09-03T10:23:17;95382.59;;;21.66;100.00
43878;BME280;29815;48.184;11.268;2022-09-03T10:26:01;95383.84;;;21.69;100.00
43878;BME280;29815;48.184;11.268;2022-09-03T10:28:38;95389.47;;;21.60;100.00
43878;BME280;29815;48.184;11.268;2022-09-03T10:31:34;95394.16;;;21.59;100.00
43878;BME280;29815;48.184;11.268;2022-09-03T10:34:17;95390.16;;;21.57;100.00
43878;BME280;29815;48.184;11.268;2022-09-03T10:36:59;95393.22;;;21.55;100.00
43878;BME280;29815;48.184;11.268;2022-09-03T10:39:53;95394.56;;;21.61;100.00
43878;BME280;29815;48.184;11.268;2022-09-03T10:42:40;95383.06;;;21.56;100.00
43878;BME280;29815;48.184;11.268;2022-09-03T10:45:18;95386.03;;;21.51;100.00
43878;BME280;29815;48.184;11.268;2022-09-03T10:48:21;95376.69;;;21.52;100.00
43878;BME280;29815;48.184;11.268;2022-09-03T10:51:17;95377.03;;;21.50;100.00
43878;BME280;29815;48.184;11.268;2022-09-03T10:54:06;95382.38;;;21.47;100.00
43878;BME280;29815;48.184;11.268;2022-09-03T10:56:53;95383.06;;;21.56;100.00
43878;BME280;29815;48.184;11.268;2022-09-03T10:59:42;95381.69;;;21.62;100.00
43878;BME280;29815;48.184;11.268;2022-09-03T11:03:03;95386.13;;;21.67;100.00
43878;BME280;29815;48.184;11.268;2022-09-03T11:05:59;95381.09;;;21.81;100.00
43878;BME280;29815;48.184;11.268;2022-09-03T11:08:35;95381.06;;;21.93;100.00
43878;BME280;29815;48.184;11.268;2022-09-03T11:11:12;95371.19;;;22.16;100.00
43878;BME280;29815;48.184;11.268;2022-09-03T11:13:51;95368.03;;;22.42;100.00
43878;BME280;29815;48.184;11.268;2022-09-03T11:16:30;95357.09;;;22.58;100.00
43878;BME280;29815;48.184;11.268;2022-09-03T11:19:05;95354.69;;;22.84;100.00
43878;BME280;29815;48.184;11.268;2022-09-03T11:21:37;95353.09;;;23.15;100.00
43878;BME280;29815;48.184;11.268;2022-09-03T11:24:13;95360.78;;;23.56;100.00
43878;BME280;29815;48.184;11.268;2022-09-03T11:26:51;95347.91;;;23.76;100.00
43878;BME280;29815;48.184;11.268;2022-09-03T11:29:33;95348.28;;;23.59;100.00
43878;BME280;29815;48.184;11.268;2022-09-03T11:32:09;95354.13;;;23.57;100.00
43878;BME280;29815;48.184;11.268;2022-09-03T11:34:48;95353.25;;;23.53;100.00
43878;BME280;29815;48.184;11.268;2022-09-03T11:37:22;95354.13;;;23.57;100.00
43878;BME280;29815;48.184;11.268;2022-09-03T11:39:57;95346.59;;;23.54;100.00
43878;BME280;29815;48.184;11.268;2022-09-03T11:42:31;95338.81;;;23.56;100.00
43878;BME280;29815;48.184;11.268;2022-09-03T11:45:32;95335.88;;;23.65;100.00
43878;BME280;29815;48.184;11.268;2022-09-03T11:48:29;95330.53;;;23.72;96.13
43878;BME280;29815;48.184;11.268;2022-09-03T11:51:03;95328.22;;;23.74;98.63
43878;BME280;29815;48.184;11.268;2022-09-03T11:53:34;95331.34;;;23.92;98.34
43878;BME280;29815;48.184;11.268;2022-09-03T11:56:17;95325.72;;;24.04;95.88
43878;BME280;29815;48.184;11.268;2022-09-03T11:59:05;95317.72;;;24.34;92.33
43878;BME280;29815;48.184;11.268;2022-09-03T12:01:52;95324.59;;;24.67;89.99
43878;BME280;29815;48.184;11.268;2022-09-03T12:04:29;95313.41;;;24.98;92.34
43878;BME280;29815;48.184;11.268;2022-09-03T12:07:28;95316.44;;;25.39;82.84
43878;BME280;29815;48.184;11.268;2022-09-03T12:10:26;95316.09;;;25.67;87.49
43878;BME280;29815;48.184;11.268;2022-09-03T12:13:23;95313.38;;;26.00;84.33
43878;BME280;29815;48.184;11.268;2022-09-03T12:16:19;95314.31;;;26.41;90.04
43878;BME280;29815;48.184;11.268;2022-09-03T12:19:03;95324.56;;;26.78;93.81
43878;BME280;29815;48.184;11.268;2022-09-03T12:21:40;95307.56;;;27.16;75.59
43878;BME280;29815;48.184;11.268;2022-09-03T12:24:10;95312.47;;;27.34;81.25
43878;BME280;29815;48.184;11.268;2022-09-03T12:26:42;95311.88;;;27.58;77.95
43878;BME280;29815;48.184;11.268;2022-09-03T12:29:22;95312.84;;;27.90;79.41
43878;BME280;29815;48.184;11.268;2022-09-03T12:32:03;95313.75;;;28.09;71.66
43878;BME280;29815;48.184;11.268;2022-09-03T12:34:35;95311.81;;;28.20;68.10
43878;BME280;29815;48.184;11.268;2022-09-03T12:37:18;95314.97;;;28.18;65.33
43878;BME280;29815;48.184;11.268;2022-09-03T12:40:22;95308.56;;;28.04;66.68
43878;BME280;29815;48.184;11.268;2022-09-03T12:42:53;95312.91;;;28.01;67.73
43878;BME280;29815;48.184;11.268;2022-09-03T12:45:45;95311.69;;;27.95;66.71
43878;BME280;29815;48.184;11.268;2022-09-03T12:48:35;95307.06;;;27.51;63.70
43878;BME280;29815;48.184;11.268;2022-09-03T12:51:11;95303.13;;;27.52;70.75
43878;BME280;29815;48.184;11.268;2022-09-03T12:54:02;95294.66;;;27.86;70.13
43878;BME280;29815;48.184;11.268;2022-09-03T12:56:37;95292.00;;;28.07;69.59
43878;BME280;29815;48.184;11.268;2022-09-03T12:59:13;95286.97;;;28.30;70.44
43878;BME280;29815;48.184;11.268;2022-09-03T13:01:49;95279.94;;;28.61;69.72
43878;BME280;29815;48.184;11.268;2022-09-03T13:04:23;95279.63;;;28.95;66.07
43878;BME280;29815;48.184;11.268;2022-09-03T13:07:00;95277.28;;;29.22;65.79
43878;BME280;29815;48.184;11.268;2022-09-03T13:09:35;95268.53;;;29.62;64.98
43878;BME280;29815;48.184;11.268;2022-09-03T13:12:06;95274.50;;;29.18;56.52
43878;BME280;29815;48.184;11.268;2022-09-03T13:14:48;95276.47;;;28.89;55.49
43878;BME280;29815;48.184;11.268;2022-09-03T13:17:28;95285.81;;;28.39;54.77
43878;BME280;29815;48.184;11.268;2022-09-03T13:20:15;95303.03;;;28.00;54.45
43878;BME280;29815;48.184;11.268;2022-09-03T13:23:28;95306.56;;;27.39;57.25
43878;BME280;29815;48.184;11.268;2022-09-03T13:26:20;95320.63;;;26.82;57.89
43878;BME280;29815;48.184;11.268;2022-09-03T13:29:07;95331.00;;;26.22;59.98
43878;BME280;29815;48.184;11.268;2022-09-03T13:31:46;95330.16;;;25.61;63.16
43878;BME280;29815;48.184;11.268;2022-09-03T13:34:21;95325.47;;;25.13;64.95
43878;BME280;29815;48.184;11.268;2022-09-03T13:36:54;95324.16;;;24.84;66.32